sensor_id;sensor_type;location;lat;lon;timestamp;P1;durP1;ratioP1;P2;durP2;ratioP2
66603;SDS011;53460;39.612;8.822;2023-04-22T00:02:14;3.38;;;1.33;;
66603;SDS011;53460;39.612;8.822;2023-04-22T00:04:44;3.75;;;1.70;;
66603;SDS011;53460;39.612;8.822;2023-04-22T00:07:11;2.63;;;1.50;;
66603;SDS011;53460;39.612;8.822;2023-04-22T00:09:36;2.38;;;1.58;;
66603;SDS011;53460;39.612;8.822;2023-04-22T00:12:02;6.50;;;1.77;;
66603;SDS011;53460;39.612;8.822;2023-04-22T00:14:27;3.05;;;1.98;;
66603;SDS011;53460;39.612;8.822;2023-04-22T00:16:53;3.78;;;1.77;;
66603;SDS011;53460;39.612;8.822;2023-04-22T00:19:18;3.85;;;1.83;;
66603;SDS011;53460;39.612;8.822;2023-04-22T00:21:44;2.80;;;1.45;;
66603;SDS011;53460;39.612;8.822;2023-04-22T00:24:09;5.60;;;1.67;;
66603;SDS011;53460;39.612;8.822;2023-04-22T00:26:35;5.20;;;2.00;;
66603;SDS011;53460;39.612;8.822;2023-04-22T00:29:00;2.65;;;1.52;;
66603;SDS011;53460;39.612;8.822;2023-04-22T00:31:26;5.55;;;1.98;;
66603;SDS011;53460;39.612;8.822;2023-04-22T00:33:51;1.85;;;1.63;;
66603;SDS011;53460;39.612;8.822;2023-04-22T00:36:17;2.00;;;1.75;;
66603;SDS011;53460;39.612;8.822;2023-04-22T00:38:44;2.45;;;1.90;;
66603;SDS011;53460;39.612;8.822;2023-04-22T00:41:11;3.88;;;1.77;;
66603;SDS011;53460;39.612;8.822;2023-04-22T00:43:36;1.67;;;1.42;;
66603;SDS011;53460;39.612;8.822;2023-04-22T00:46:02;2.88;;;1.88;;
66603;SDS011;53460;39.612;8.822;2023-04-22T00:48:28;6.25;;;1.67;;
66603;SDS011;53460;39.612;8.822;2023-04-22T00:50:53;2.35;;;1.52;;
66603;SDS011;53460;39.612;8.822;2023-04-22T00:53:19;2.80;;;1.55;;
66603;SDS011;53460;39.612;8.822;2023-04-22T00:55:44;3.28;;;1.60;;
66603;SDS011;53460;39.612;8.822;2023-04-22T00:58:10;9.30;;;1.90;;
66603;SDS011;53460;39.612;8.822;2023-04-22T01:00:36;2.22;;;1.60;;
66603;SDS011;53460;39.612;8.822;2023-04-22T01:03:01;5.85;;;1.92;;
66603;SDS011;53460;39.612;8.822;2023-04-22T01:05:29;2.42;;;1.65;;
66603;SDS011;53460;39.612;8.822;2023-04-22T01:07:55;2.72;;;1.90;;
66603;SDS011;53460;39.612;8.822;2023-04-22T01:10:20;2.78;;;1.73;;
66603;SDS011;53460;39.612;8.822;2023-04-22T01:12:46;2.42;;;1.70;;
66603;SDS011;53460;39.612;8.822;2023-04-22T01:15:11;3.60;;;1.85;;
66603;SDS011;53460;39.612;8.822;2023-04-22T01:17:37;3.85;;;1.95;;
66603;SDS011;53460;39.612;8.822;2023-04-22T01:20:02;2.13;;;1.77;;
66603;SDS011;53460;39.612;8.822;2023-04-22T01:22:30;4.75;;;2.00;;
66603;SDS011;53460;39.612;8.822;2023-04-22T01:24:57;2.10;;;1.70;;
66603;SDS011;53460;39.612;8.822;2023-04-22T01:27:23;3.28;;;1.90;;
66603;SDS011;53460;39.612;8.822;2023-04-22T01:29:49;2.10;;;1.70;;
66603;SDS011;53460;39.612;8.822;2023-04-22T01:32:16;4.18;;;2.40;;
66603;SDS011;53460;39.612;8.822;2023-04-22T01:34:42;2.38;;;1.67;;
66603;SDS011;53460;39.612;8.822;2023-04-22T01:37:07;2.92;;;2.00;;
66603;SDS011;53460;39.612;8.822;2023-04-22T01:39:33;4.55;;;1.88;;
66603;SDS011;53460;39.612;8.822;2023-04-22T01:41:59;3.35;;;1.50;;
66603;SDS011;53460;39.612;8.822;2023-04-22T01:44:26;4.03;;;2.10;;
66603;SDS011;53460;39.612;8.822;2023-04-22T01:46:51;4.53;;;1.80;;
66603;SDS011;53460;39.612;8.822;2023-04-22T01:49:17;2.08;;;1.67;;
66603;SDS011;53460;39.612;8.822;2023-04-22T01:51:42;3.58;;;1.60;;
66603;SDS011;53460;39.612;8.822;2023-04-22T01:54:08;2.50;;;1.75;;
66603;SDS011;53460;39.612;8.822;2023-04-22T01:56:34;2.08;;;1.88;;
66603;SDS011;53460;39.612;8.822;2023-04-22T01:59:00;2.10;;;1.70;;
66603;SDS011;53460;39.612;8.822;2023-04-22T02:01:28;3.38;;;1.80;;
66603;SDS011;53460;39.612;8.822;2023-04-22T02:03:54;2.15;;;1.77;;
66603;SDS011;53460;39.612;8.822;2023-04-22T02:06:19;4.30;;;1.77;;
66603;SDS011;53460;39.612;8.822;2023-04-22T02:08:45;7.47;;;1.98;;
66603;SDS011;53460;39.612;8.822;2023-04-22T02:11:11;1.85;;;1.58;;
66603;SDS011;53460;39.612;8.822;2023-04-22T02:13:37;2.28;;;1.70;;
66603;SDS011;53460;39.612;8.822;2023-04-22T02:16:03;4.00;;;2.10;;
66603;SDS011;53460;39.612;8.822;2023-04-22T02:18:28;3.70;;;2.00;;
66603;SDS011;53460;39.612;8.822;2023-04-22T02:20:54;3.72;;;1.83;;
66603;SDS011;53460;39.612;8.822;2023-04-22T02:23:20;4.75;;;1.85;;
66603;SDS011;53460;39.612;8.822;2023-04-22T02:25:49;4.75;;;1.90;;
66603;SDS011;53460;39.612;8.822;2023-04-22T02:28:17;3.60;;;1.70;;
66603;SDS011;53460;39.612;8.822;2023-04-22T02:30:46;5.03;;;1.50;;
66603;SDS011;53460;39.612;8.822;2023-04-22T02:33:11;4.35;;;2.53;;
66603;SDS011;53460;39.612;8.822;2023-04-22T02:35:37;6.15;;;2.28;;
66603;SDS011;53460;39.612;8.822;2023-04-22T02:38:02;6.60;;;1.80;;
66603;SDS011;53460;39.612;8.822;2023-04-22T02:40:28;4.60;;;1.77;;
66603;SDS011;53460;39.612;8.822;2023-04-22T02:42:53;4.05;;;2.03;;
66603;SDS011;53460;39.612;8.822;2023-04-22T02:45:20;4.95;;;1.55;;
66603;SDS011;53460;39.612;8.822;2023-04-22T02:47:45;2.97;;;1.65;;
66603;SDS011;53460;39.612;8.822;2023-04-22T02:50:11;9.32;;;2.00;;
66603;SDS011;53460;39.612;8.822;2023-04-22T02:52:36;4.95;;;1.98;;
66603;SDS011;53460;39.612;8.822;2023-04-22T02:55:02;4.05;;;1.73;;
66603;SDS011;53460;39.612;8.822;2023-04-22T02:57:28;2.17;;;1.65;;
66603;SDS011;53460;39.612;8.822;2023-04-22T02:59:53;1.98;;;1.65;;
66603;SDS011;53460;39.612;8.822;2023-04-22T03:02:20;3.92;;;1.98;;
66603;SDS011;53460;39.612;8.822;2023-04-22T03:05:06;4.70;;;2.15;;
66603;SDS011;53460;39.612;8.822;2023-04-22T03:07:32;2.95;;;1.60;;
66603;SDS011;53460;39.612;8.822;2023-04-22T03:09:58;3.28;;;1.70;;
66603;SDS011;53460;39.612;8.822;2023-04-22T03:12:23;3.58;;;1.85;;
66603;SDS011;53460;39.612;8.822;2023-04-22T03:14:50;3.28;;;1.65;;
66603;SDS011;53460;39.612;8.822;2023-04-22T03:17:15;4.60;;;1.63;;
66603;SDS011;53460;39.612;8.822;2023-04-22T03:19:41;3.15;;;2.00;;
66603;SDS011;53460;39.612;8.822;2023-04-22T03:22:07;4.88;;;2.00;;
66603;SDS011;53460;39.612;8.822;2023-04-22T03:24:32;3.20;;;2.10;;
66603;SDS011;53460;39.612;8.822;2023-04-22T03:27:01;5.20;;;1.90;;
66603;SDS011;53460;39.612;8.822;2023-04-22T03:29:28;2.92;;;1.88;;
66603;SDS011;53460;39.612;8.822;2023-04-22T03:31:54;4.35;;;2.08;;
66603;SDS011;53460;39.612;8.822;2023-04-22T03:34:19;5.13;;;1.92;;
66603;SDS011;53460;39.612;8.822;2023-04-22T03:36:45;4.03;;;1.80;;
66603;SDS011;53460;39.612;8.822;2023-04-22T03:39:11;4.82;;;1.92;;
66603;SDS011;53460;39.612;8.822;2023-04-22T03:41:37;3.33;;;2.15;;
66603;SDS011;53460;39.612;8.822;2023-04-22T03:44:04;2.50;;;1.83;;
66603;SDS011;53460;39.612;8.822;2023-04-22T03:46:31;3.05;;;1.98;;
66603;SDS011;53460;39.612;8.822;2023-04-22T03:49:16;4.85;;;1.92;;
66603;SDS011;53460;39.612;8.822;2023-04-22T03:51:42;3.17;;;1.65;;
66603;SDS011;53460;39.612;8.822;2023-04-22T03:54:11;2.60;;;1.65;;
66603;SDS011;53460;39.612;8.822;2023-04-22T03:56:43;4.27;;;1.60;;
66603;SDS011;53460;39.612;8.822;2023-04-22T03:59:09;2.38;;;1.88;;
66603;SDS011;53460;39.612;8.822;2023-04-22T04:01:35;4.30;;;1.75;;
66603;SDS011;53460;39.612;8.822;2023-04-22T04:04:04;3.88;;;1.70;;
66603;SDS011;53460;39.612;8.822;2023-04-22T04:06:59;4.78;;;1.98;;
66603;SDS011;53460;39.612;8.822;2023-04-22T04:09:26;1.85;;;1.48;;
66603;SDS011;53460;39.612;8.822;2023-04-22T04:11:51;2.65;;;1.50;;
66603;SDS011;53460;39.612;8.822;2023-04-22T04:14:17;1.50;;;1.40;;
66603;SDS011;53460;39.612;8.822;2023-04-22T04:16:46;2.38;;;1.95;;
66603;SDS011;53460;39.612;8.822;2023-04-22T04:19:19;3.17;;;2.05;;
66603;SDS011;53460;39.612;8.822;2023-04-22T04:21:45;5.97;;;2.20;;
66603;SDS011;53460;39.612;8.822;2023-04-22T04:24:10;2.67;;;1.83;;
66603;SDS011;53460;39.612;8.822;2023-04-22T04:26:41;6.15;;;2.55;;
66603;SDS011;53460;39.612;8.822;2023-04-22T04:29:12;4.82;;;2.80;;
66603;SDS011;53460;39.612;8.822;2023-04-22T04:31:40;7.53;;;3.40;;
66603;SDS011;53460;39.612;8.822;2023-04-22T04:34:05;3.58;;;2.88;;
66603;SDS011;53460;39.612;8.822;2023-04-22T04:36:33;7.55;;;3.22;;
66603;SDS011;53460;39.612;8.822;2023-04-22T04:39:10;5.47;;;2.30;;
66603;SDS011;53460;39.612;8.822;2023-04-22T04:41:36;3.40;;;1.70;;
66603;SDS011;53460;39.612;8.822;2023-04-22T04:44:04;3.10;;;2.00;;
66603;SDS011;53460;39.612;8.822;2023-04-22T04:46:33;2.33;;;2.10;;
66603;SDS011;53460;39.612;8.822;2023-04-22T04:49:02;4.13;;;2.38;;
66603;SDS011;53460;39.612;8.822;2023-04-22T04:51:32;6.00;;;2.00;;
66603;SDS011;53460;39.612;8.822;2023-04-22T04:53:59;3.88;;;1.80;;
66603;SDS011;53460;39.612;8.822;2023-04-22T04:56:29;2.83;;;1.80;;
66603;SDS011;53460;39.612;8.822;2023-04-22T04:58:56;2.90;;;1.98;;
66603;SDS011;53460;39.612;8.822;2023-04-22T05:01:24;4.40;;;2.03;;
66603;SDS011;53460;39.612;8.822;2023-04-22T05:03:51;4.07;;;1.88;;
66603;SDS011;53460;39.612;8.822;2023-04-22T05:06:18;3.13;;;1.52;;
66603;SDS011;53460;39.612;8.822;2023-04-22T05:08:51;2.15;;;1.70;;
66603;SDS011;53460;39.612;8.822;2023-04-22T05:11:17;2.22;;;2.03;;
66603;SDS011;53460;39.612;8.822;2023-04-22T05:13:46;1.83;;;1.67;;
66603;SDS011;53460;39.612;8.822;2023-04-22T05:16:17;7.30;;;1.65;;
66603;SDS011;53460;39.612;8.822;2023-04-22T05:18:43;4.63;;;1.80;;
66603;SDS011;53460;39.612;8.822;2023-04-22T05:21:09;1.92;;;1.58;;
66603;SDS011;53460;39.612;8.822;2023-04-22T05:23:35;1.67;;;1.38;;
66603;SDS011;53460;39.612;8.822;2023-04-22T05:26:02;3.85;;;1.60;;
66603;SDS011;53460;39.612;8.822;2023-04-22T05:28:29;1.83;;;1.25;;
66603;SDS011;53460;39.612;8.822;2023-04-22T05:30:56;4.05;;;2.00;;
66603;SDS011;53460;39.612;8.822;2023-04-22T05:33:23;3.88;;;2.08;;
66603;SDS011;53460;39.612;8.822;2023-04-22T05:35:49;2.60;;;1.77;;
66603;SDS011;53460;39.612;8.822;2023-04-22T05:38:15;4.80;;;2.00;;
66603;SDS011;53460;39.612;8.822;2023-04-22T05:40:41;2.38;;;2.15;;
66603;SDS011;53460;39.612;8.822;2023-04-22T05:43:09;2.65;;;2.05;;
66603;SDS011;53460;39.612;8.822;2023-04-22T05:45:36;2.30;;;2.10;;
66603;SDS011;53460;39.612;8.822;2023-04-22T05:48:04;1.95;;;1.80;;
66603;SDS011;53460;39.612;8.822;2023-04-22T05:50:35;2.38;;;2.17;;
66603;SDS011;53460;39.612;8.822;2023-04-22T05:53:05;3.00;;;2.53;;
66603;SDS011;53460;39.612;8.822;2023-04-22T05:55:31;4.18;;;2.42;;
66603;SDS011;53460;39.612;8.822;2023-04-22T05:57:57;2.95;;;2.22;;
66603;SDS011;53460;39.612;8.822;2023-04-22T06:00:45;2.50;;;1.90;;
66603;SDS011;53460;39.612;8.822;2023-04-22T06:03:26;7.97;;;1.70;;
66603;SDS011;53460;39.612;8.822;2023-04-22T06:05:52;2.72;;;1.98;;
66603;SDS011;53460;39.612;8.822;2023-04-22T06:08:18;2.55;;;2.22;;
66603;SDS011;53460;39.612;8.822;2023-04-22T06:10:44;3.92;;;3.42;;
66603;SDS011;53460;39.612;8.822;2023-04-22T06:13:09;4.05;;;2.45;;
66603;SDS011;53460;39.612;8.822;2023-04-22T06:15:35;3.08;;;2.40;;
66603;SDS011;53460;39.612;8.822;2023-04-22T06:18:00;5.32;;;2.88;;
66603;SDS011;53460;39.612;8.822;2023-04-22T06:20:26;3.40;;;2.50;;
66603;SDS011;53460;39.612;8.822;2023-04-22T06:22:52;4.38;;;2.50;;
66603;SDS011;53460;39.612;8.822;2023-04-22T06:25:18;4.53;;;3.22;;
66603;SDS011;53460;39.612;8.822;2023-04-22T06:27:43;3.15;;;2.85;;
66603;SDS011;53460;39.612;8.822;2023-04-22T06:30:10;2.92;;;2.00;;
66603;SDS011;53460;39.612;8.822;2023-04-22T06:32:36;6.75;;;1.90;;
66603;SDS011;53460;39.612;8.822;2023-04-22T06:35:02;2.33;;;1.60;;
66603;SDS011;53460;39.612;8.822;2023-04-22T06:37:27;2.50;;;2.00;;
66603;SDS011;53460;39.612;8.822;2023-04-22T06:39:53;4.38;;;2.25;;
66603;SDS011;53460;39.612;8.822;2023-04-22T06:42:44;5.25;;;2.30;;
66603;SDS011;53460;39.612;8.822;2023-04-22T06:45:40;2.45;;;1.75;;
66603;SDS011;53460;39.612;8.822;2023-04-22T06:48:26;2.55;;;1.63;;
66603;SDS011;53460;39.612;8.822;2023-04-22T06:51:11;2.50;;;1.70;;
66603;SDS011;53460;39.612;8.822;2023-04-22T06:53:36;2.83;;;1.77;;
66603;SDS011;53460;39.612;8.822;2023-04-22T06:56:02;2.92;;;1.70;;
66603;SDS011;53460;39.612;8.822;2023-04-22T06:58:28;2.72;;;1.60;;
66603;SDS011;53460;39.612;8.822;2023-04-22T07:00:53;1.65;;;1.27;;
66603;SDS011;53460;39.612;8.822;2023-04-22T07:03:19;2.08;;;1.77;;
66603;SDS011;53460;39.612;8.822;2023-04-22T07:05:54;2.08;;;1.08;;
66603;SDS011;53460;39.612;8.822;2023-04-22T07:08:19;2.55;;;1.15;;
66603;SDS011;53460;39.612;8.822;2023-04-22T07:10:45;2.05;;;1.20;;
66603;SDS011;53460;39.612;8.822;2023-04-22T07:13:30;1.55;;;1.23;;
66603;SDS011;53460;39.612;8.822;2023-04-22T07:15:58;2.38;;;1.33;;
66603;SDS011;53460;39.612;8.822;2023-04-22T07:18:24;2.30;;;1.63;;
66603;SDS011;53460;39.612;8.822;2023-04-22T07:20:50;2.60;;;1.63;;
66603;SDS011;53460;39.612;8.822;2023-04-22T07:23:15;3.15;;;1.52;;
66603;SDS011;53460;39.612;8.822;2023-04-22T07:25:40;4.43;;;1.27;;
66603;SDS011;53460;39.612;8.822;2023-04-22T07:28:06;3.08;;;1.08;;
66603;SDS011;53460;39.612;8.822;2023-04-22T07:30:31;1.40;;;1.10;;
66603;SDS011;53460;39.612;8.822;2023-04-22T07:32:57;1.60;;;1.30;;
66603;SDS011;53460;39.612;8.822;2023-04-22T07:35:22;2.08;;;1.10;;
66603;SDS011;53460;39.612;8.822;2023-04-22T07:37:48;0.95;;;0.80;;
66603;SDS011;53460;39.612;8.822;2023-04-22T07:40:13;2.45;;;1.13;;
66603;SDS011;53460;39.612;8.822;2023-04-22T07:42:39;1.10;;;0.95;;
66603;SDS011;53460;39.612;8.822;2023-04-22T07:45:05;1.02;;;0.93;;
66603;SDS011;53460;39.612;8.822;2023-04-22T07:47:30;2.45;;;1.10;;
66603;SDS011;53460;39.612;8.822;2023-04-22T07:49:56;3.00;;;1.17;;
66603;SDS011;53460;39.612;8.822;2023-04-22T07:52:21;1.38;;;1.02;;
66603;SDS011;53460;39.612;8.822;2023-04-22T07:54:47;1.85;;;1.00;;
66603;SDS011;53460;39.612;8.822;2023-04-22T07:57:12;1.15;;;1.05;;
66603;SDS011;53460;39.612;8.822;2023-04-22T07:59:38;3.60;;;1.35;;
66603;SDS011;53460;39.612;8.822;2023-04-22T08:02:03;2.63;;;1.70;;
66603;SDS011;53460;39.612;8.822;2023-04-22T08:04:29;2.45;;;1.63;;
66603;SDS011;53460;39.612;8.822;2023-04-22T08:06:54;2.95;;;1.35;;
66603;SDS011;53460;39.612;8.822;2023-04-22T08:09:21;2.20;;;1.73;;
66603;SDS011;53460;39.612;8.822;2023-04-22T08:11:47;4.57;;;1.30;;
66603;SDS011;53460;39.612;8.822;2023-04-22T08:14:12;2.28;;;1.30;;
66603;SDS011;53460;39.612;8.822;2023-04-22T08:16:38;4.97;;;1.20;;
66603;SDS011;53460;39.612;8.822;2023-04-22T08:19:04;2.85;;;1.33;;
66603;SDS011;53460;39.612;8.822;2023-04-22T08:21:29;1.92;;;1.10;;
66603;SDS011;53460;39.612;8.822;2023-04-22T08:23:55;1.50;;;1.27;;
66603;SDS011;53460;39.612;8.822;2023-04-22T08:26:21;7.68;;;1.20;;
66603;SDS011;53460;39.612;8.822;2023-04-22T08:28:46;1.60;;;1.20;;
66603;SDS011;53460;39.612;8.822;2023-04-22T08:31:12;1.10;;;1.00;;
66603;SDS011;53460;39.612;8.822;2023-04-22T08:33:40;1.60;;;1.27;;
66603;SDS011;53460;39.612;8.822;2023-04-22T08:36:06;5.75;;;1.30;;
66603;SDS011;53460;39.612;8.822;2023-04-22T08:38:32;3.13;;;1.35;;
66603;SDS011;53460;39.612;8.822;2023-04-22T08:40:58;2.50;;;2.30;;
66603;SDS011;53460;39.612;8.822;2023-04-22T08:43:24;1.52;;;1.27;;
66603;SDS011;53460;39.612;8.822;2023-04-22T08:45:50;2.97;;;1.45;;
66603;SDS011;53460;39.612;8.822;2023-04-22T08:48:16;1.67;;;1.00;;
66603;SDS011;53460;39.612;8.822;2023-04-22T08:50:42;1.40;;;1.10;;
66603;SDS011;53460;39.612;8.822;2023-04-22T08:53:08;4.28;;;1.20;;
66603;SDS011;53460;39.612;8.822;2023-04-22T08:55:34;2.75;;;1.20;;
66603;SDS011;53460;39.612;8.822;2023-04-22T08:58:00;1.40;;;1.10;;
66603;SDS011;53460;39.612;8.822;2023-04-22T09:00:28;2.40;;;0.95;;
66603;SDS011;53460;39.612;8.822;2023-04-22T09:02:54;1.13;;;0.95;;
66603;SDS011;53460;39.612;8.822;2023-04-22T09:05:21;1.65;;;1.27;;
66603;SDS011;53460;39.612;8.822;2023-04-22T09:07:47;2.65;;;1.20;;
66603;SDS011;53460;39.612;8.822;2023-04-22T09:10:12;3.72;;;1.40;;
66603;SDS011;53460;39.612;8.822;2023-04-22T09:12:39;5.25;;;1.25;;
66603;SDS011;53460;39.612;8.822;2023-04-22T09:15:05;17.55;;;3.17;;
66603;SDS011;53460;39.612;8.822;2023-04-22T09:17:31;5.35;;;1.48;;
66603;SDS011;53460;39.612;8.822;2023-04-22T09:19:57;5.15;;;1.38;;
66603;SDS011;53460;39.612;8.822;2023-04-22T09:22:25;2.00;;;1.10;;
66603;SDS011;53460;39.612;8.822;2023-04-22T09:24:51;1.17;;;0.93;;
66603;SDS011;53460;39.612;8.822;2023-04-22T09:27:16;2.90;;;1.30;;
66603;SDS011;53460;39.612;8.822;2023-04-22T09:29:48;5.78;;;1.35;;
66603;SDS011;53460;39.612;8.822;2023-04-22T09:32:14;1.98;;;1.27;;
66603;SDS011;53460;39.612;8.822;2023-04-22T09:35:13;2.00;;;1.30;;
66603;SDS011;53460;39.612;8.822;2023-04-22T09:37:31;1.75;;;1.20;;
66603;SDS011;53460;39.612;8.822;2023-04-22T09:39:57;3.50;;;1.60;;
66603;SDS011;53460;39.612;8.822;2023-04-22T09:42:23;1.98;;;1.42;;
66603;SDS011;53460;39.612;8.822;2023-04-22T09:44:49;1.30;;;1.20;;
66603;SDS011;53460;39.612;8.822;2023-04-22T09:47:18;1.40;;;1.15;;
66603;SDS011;53460;39.612;8.822;2023-04-22T09:49:45;1.80;;;1.20;;
66603;SDS011;53460;39.612;8.822;2023-04-22T09:52:19;2.53;;;1.23;;
66603;SDS011;53460;39.612;8.822;2023-04-22T09:54:49;3.17;;;2.00;;
66603;SDS011;53460;39.612;8.822;2023-04-22T09:57:16;1.33;;;1.13;;
66603;SDS011;53460;39.612;8.822;2023-04-22T09:59:41;1.65;;;1.30;;
66603;SDS011;53460;39.612;8.822;2023-04-22T10:02:07;1.45;;;1.10;;
66603;SDS011;53460;39.612;8.822;2023-04-22T10:04:33;5.07;;;1.17;;
66603;SDS011;53460;39.612;8.822;2023-04-22T10:06:59;5.30;;;2.00;;
66603;SDS011;53460;39.612;8.822;2023-04-22T10:09:27;5.35;;;1.58;;
66603;SDS011;53460;39.612;8.822;2023-04-22T10:11:53;2.58;;;1.27;;
66603;SDS011;53460;39.612;8.822;2023-04-22T10:14:27;2.13;;;1.85;;
66603;SDS011;53460;39.612;8.822;2023-04-22T10:16:56;2.95;;;1.20;;
66603;SDS011;53460;39.612;8.822;2023-04-22T10:19:23;2.35;;;1.35;;
66603;SDS011;53460;39.612;8.822;2023-04-22T10:21:51;2.78;;;1.75;;
66603;SDS011;53460;39.612;8.822;2023-04-22T10:24:18;6.57;;;1.58;;
66603;SDS011;53460;39.612;8.822;2023-04-22T10:26:48;3.80;;;2.13;;
66603;SDS011;53460;39.612;8.822;2023-04-22T10:29:15;1.83;;;1.08;;
66603;SDS011;53460;39.612;8.822;2023-04-22T10:31:44;1.65;;;1.40;;
66603;SDS011;53460;39.612;8.822;2023-04-22T10:34:15;6.63;;;2.45;;
66603;SDS011;53460;39.612;8.822;2023-04-22T10:36:56;1.75;;;1.27;;
66603;SDS011;53460;39.612;8.822;2023-04-22T10:39:21;2.17;;;1.58;;
66603;SDS011;53460;39.612;8.822;2023-04-22T10:42:06;3.08;;;1.38;;
66603;SDS011;53460;39.612;8.822;2023-04-22T10:44:45;1.85;;;1.40;;
66603;SDS011;53460;39.612;8.822;2023-04-22T10:47:12;1.60;;;1.20;;
66603;SDS011;53460;39.612;8.822;2023-04-22T10:49:49;3.45;;;1.60;;
66603;SDS011;53460;39.612;8.822;2023-04-22T10:52:36;1.52;;;1.30;;
66603;SDS011;53460;39.612;8.822;2023-04-22T10:55:01;3.70;;;1.23;;
66603;SDS011;53460;39.612;8.822;2023-04-22T10:57:30;1.40;;;1.30;;
66603;SDS011;53460;39.612;8.822;2023-04-22T11:00:23;3.63;;;1.38;;
66603;SDS011;53460;39.612;8.822;2023-04-22T11:02:50;1.48;;;1.20;;
66603;SDS011;53460;39.612;8.822;2023-04-22T11:05:17;2.42;;;1.35;;
66603;SDS011;53460;39.612;8.822;2023-04-22T11:07:42;2.17;;;1.42;;
66603;SDS011;53460;39.612;8.822;2023-04-22T11:10:08;2.50;;;1.27;;
66603;SDS011;53460;39.612;8.822;2023-04-22T11:15:09;2.78;;;1.30;;
66603;SDS011;53460;39.612;8.822;2023-04-22T11:17:38;1.98;;;1.00;;
66603;SDS011;53460;39.612;8.822;2023-04-22T11:20:05;6.90;;;2.05;;
66603;SDS011;53460;39.612;8.822;2023-04-22T11:23:14;3.20;;;1.20;;
66603;SDS011;53460;39.612;8.822;2023-04-22T11:25:20;5.25;;;2.47;;
66603;SDS011;53460;39.612;8.822;2023-04-22T11:27:46;2.92;;;1.00;;
66603;SDS011;53460;39.612;8.822;2023-04-22T11:30:18;3.00;;;1.27;;
66603;SDS011;53460;39.612;8.822;2023-04-22T11:32:45;2.28;;;1.40;;
66603;SDS011;53460;39.612;8.822;2023-04-22T11:35:12;2.60;;;1.20;;
66603;SDS011;53460;39.612;8.822;2023-04-22T11:40:13;1.38;;;1.08;;
66603;SDS011;53460;39.612;8.822;2023-04-22T11:42:39;3.60;;;1.85;;
66603;SDS011;53460;39.612;8.822;2023-04-22T11:45:04;2.40;;;1.50;;
66603;SDS011;53460;39.612;8.822;2023-04-22T11:47:30;3.40;;;1.50;;
66603;SDS011;53460;39.612;8.822;2023-04-22T11:49:57;2.17;;;1.70;;
66603;SDS011;53460;39.612;8.822;2023-04-22T11:52:45;4.68;;;1.40;;
66603;SDS011;53460;39.612;8.822;2023-04-22T11:55:10;5.22;;;1.60;;
66603;SDS011;53460;39.612;8.822;2023-04-22T11:57:36;3.15;;;1.65;;
66603;SDS011;53460;39.612;8.822;2023-04-22T12:00:01;2.13;;;1.30;;
66603;SDS011;53460;39.612;8.822;2023-04-22T12:02:29;3.55;;;1.70;;
66603;SDS011;53460;39.612;8.822;2023-04-22T12:04:56;1.52;;;1.40;;
66603;SDS011;53460;39.612;8.822;2023-04-22T12:07:22;1.63;;;1.27;;
66603;SDS011;53460;39.612;8.822;2023-04-22T12:09:48;2.13;;;1.25;;
66603;SDS011;53460;39.612;8.822;2023-04-22T12:12:17;3.38;;;1.48;;
66603;SDS011;53460;39.612;8.822;2023-04-22T12:14:44;3.45;;;2.05;;
66603;SDS011;53460;39.612;8.822;2023-04-22T12:17:09;1.40;;;1.20;;
66603;SDS011;53460;39.612;8.822;2023-04-22T12:19:36;1.88;;;1.30;;
66603;SDS011;53460;39.612;8.822;2023-04-22T12:22:01;2.00;;;1.70;;
66603;SDS011;53460;39.612;8.822;2023-04-22T12:24:27;5.38;;;2.08;;
66603;SDS011;53460;39.612;8.822;2023-04-22T12:26:53;2.72;;;1.65;;
66603;SDS011;53460;39.612;8.822;2023-04-22T12:29:31;1.60;;;1.20;;
66603;SDS011;53460;39.612;8.822;2023-04-22T12:31:57;3.63;;;1.27;;
66603;SDS011;53460;39.612;8.822;2023-04-22T12:34:22;6.40;;;1.35;;
66603;SDS011;53460;39.612;8.822;2023-04-22T12:36:48;2.00;;;1.52;;
66603;SDS011;53460;39.612;8.822;2023-04-22T12:39:13;2.78;;;2.03;;
66603;SDS011;53460;39.612;8.822;2023-04-22T12:41:39;2.58;;;2.03;;
66603;SDS011;53460;39.612;8.822;2023-04-22T12:44:05;4.93;;;1.52;;
66603;SDS011;53460;39.612;8.822;2023-04-22T12:46:30;2.22;;;2.03;;
66603;SDS011;53460;39.612;8.822;2023-04-22T12:48:56;4.13;;;1.20;;
66603;SDS011;53460;39.612;8.822;2023-04-22T12:51:22;5.55;;;1.15;;
66603;SDS011;53460;39.612;8.822;2023-04-22T12:53:47;6.03;;;1.23;;
66603;SDS011;53460;39.612;8.822;2023-04-22T12:56:13;5.45;;;1.30;;
66603;SDS011;53460;39.612;8.822;2023-04-22T12:58:38;2.40;;;1.10;;
66603;SDS011;53460;39.612;8.822;2023-04-22T13:01:05;2.38;;;1.60;;
66603;SDS011;53460;39.612;8.822;2023-04-22T13:03:30;1.88;;;1.42;;
66603;SDS011;53460;39.612;8.822;2023-04-22T13:05:56;2.08;;;1.30;;
66603;SDS011;53460;39.612;8.822;2023-04-22T13:08:21;3.40;;;1.27;;
66603;SDS011;53460;39.612;8.822;2023-04-22T13:10:47;1.00;;;0.95;;
66603;SDS011;53460;39.612;8.822;2023-04-22T13:13:13;1.63;;;1.10;;
66603;SDS011;53460;39.612;8.822;2023-04-22T13:15:38;1.40;;;1.10;;
66603;SDS011;53460;39.612;8.822;2023-04-22T13:18:04;1.58;;;1.10;;
66603;SDS011;53460;39.612;8.822;2023-04-22T13:20:29;0.80;;;0.80;;
66603;SDS011;53460;39.612;8.822;2023-04-22T13:22:55;1.33;;;1.05;;
66603;SDS011;53460;39.612;8.822;2023-04-22T13:25:20;0.82;;;0.82;;
66603;SDS011;53460;39.612;8.822;2023-04-22T13:27:46;1.40;;;1.10;;
66603;SDS011;53460;39.612;8.822;2023-04-22T13:30:12;1.00;;;0.90;;
66603;SDS011;53460;39.612;8.822;2023-04-22T13:32:37;3.15;;;1.23;;
66603;SDS011;53460;39.612;8.822;2023-04-22T13:35:03;4.10;;;1.10;;
66603;SDS011;53460;39.612;8.822;2023-04-22T13:37:28;3.28;;;1.25;;
66603;SDS011;53460;39.612;8.822;2023-04-22T13:39:54;2.22;;;1.42;;
66603;SDS011;53460;39.612;8.822;2023-04-22T13:42:21;2.55;;;0.93;;
66603;SDS011;53460;39.612;8.822;2023-04-22T13:44:46;1.23;;;0.80;;
66603;SDS011;53460;39.612;8.822;2023-04-22T13:47:12;2.33;;;1.30;;
66603;SDS011;53460;39.612;8.822;2023-04-22T13:49:37;3.92;;;1.50;;
66603;SDS011;53460;39.612;8.822;2023-04-22T13:52:02;3.85;;;1.08;;
66603;SDS011;53460;39.612;8.822;2023-04-22T13:54:28;1.55;;;0.90;;
66603;SDS011;53460;39.612;8.822;2023-04-22T13:56:54;1.65;;;1.20;;
66603;SDS011;53460;39.612;8.822;2023-04-22T13:59:19;1.98;;;1.10;;
66603;SDS011;53460;39.612;8.822;2023-04-22T14:01:45;2.88;;;1.00;;
66603;SDS011;53460;39.612;8.822;2023-04-22T14:04:10;2.00;;;1.00;;
66603;SDS011;53460;39.612;8.822;2023-04-22T14:06:36;1.52;;;1.13;;
66603;SDS011;53460;39.612;8.822;2023-04-22T14:09:02;1.08;;;0.90;;
66603;SDS011;53460;39.612;8.822;2023-04-22T14:11:28;2.40;;;1.05;;
66603;SDS011;53460;39.612;8.822;2023-04-22T14:13:54;0.95;;;0.70;;
66603;SDS011;53460;39.612;8.822;2023-04-22T14:16:19;4.85;;;1.05;;
66603;SDS011;53460;39.612;8.822;2023-04-22T14:18:45;1.42;;;0.80;;
66603;SDS011;53460;39.612;8.822;2023-04-22T14:21:11;1.45;;;0.82;;
66603;SDS011;53460;39.612;8.822;2023-04-22T14:23:37;2.10;;;0.90;;
66603;SDS011;53460;39.612;8.822;2023-04-22T14:26:04;1.52;;;1.15;;
66603;SDS011;53460;39.612;8.822;2023-04-22T14:28:29;2.30;;;1.17;;
66603;SDS011;53460;39.612;8.822;2023-04-22T14:30:55;1.92;;;1.17;;
66603;SDS011;53460;39.612;8.822;2023-04-22T14:33:22;3.58;;;1.02;;
66603;SDS011;53460;39.612;8.822;2023-04-22T14:35:49;5.43;;;2.08;;
66603;SDS011;53460;39.612;8.822;2023-04-22T14:38:15;4.15;;;2.10;;
66603;SDS011;53460;39.612;8.822;2023-04-22T14:40:40;4.57;;;1.65;;
66603;SDS011;53460;39.612;8.822;2023-04-22T14:43:06;4.05;;;1.70;;
66603;SDS011;53460;39.612;8.822;2023-04-22T14:45:32;3.25;;;2.15;;
66603;SDS011;53460;39.612;8.822;2023-04-22T14:47:58;2.13;;;1.67;;
66603;SDS011;53460;39.612;8.822;2023-04-22T14:50:23;2.85;;;1.00;;
66603;SDS011;53460;39.612;8.822;2023-04-22T14:52:50;7.95;;;1.10;;
66603;SDS011;53460;39.612;8.822;2023-04-22T14:55:16;1.58;;;0.90;;